Flight Number: EUR1097 Duration: 3:30
Departure: Gatwick Airport (EGKK) at 06:30 Distance: 1326 Nm
Arrival: Madeira Funchal (LPMA) at 10:00 Equipment: MD-81

Weather Information
London / Gatwick Airport, United Kingdom (EGKK) 51-09N 000-11W 0M May 22, 2018 - 02:50 PM EDT / 2018.05.22 1850 UTC
Wind: from the N (010 degrees) at 14 MPH (12 KT):0
Visibility: greater than 7 mile(s):0 Temperature: 66 F (19 C) Dew Point: 51 F (11 C) Relative Humidity: 59% Pressure (altimeter): 30.03 in. Hg (1017 hPa)
ob: EGKK 221850Z 01012KT CAVOK 19/11 Q1017 cycle: 19
Sunrise: 04:04 Sunset: 19:50 (UTC)

Aeroporto Da Madeira, Portugal (LPMA) 32-41-52N 016-46-28W May 22, 2018 - 03:00 PM EDT / 2018.05.22 1900 UTC
Wind: from the N (350 degrees) at 9 MPH (8 KT) (direction variable):0
Visibility: greater than 7 mile(s):0
Sky conditions: partly cloudy Temperature: 64 F (18 C) Dew Point: 48 F (9 C) Relative Humidity: 55% Pressure (altimeter): 30.03 in. Hg (1017 hPa)
ob: LPMA 221900Z 35008KT 290V060 9999 SCT015 SCT033 18/09 Q1017 cycle: 19
Sunrise: 06:06 Sunset: 20:00 (UTC)

TAF:2018/05/22 18:18 TAF LPMA 221700Z 2218/2318 35012KT 9999 SCT015 SCT030 TEMPO 2218/2303 VRB05KT BECMG 2303/2306 VRB05KT

Previous Pireps for this route
Date Aircraft Flight time Fuel used Landing rate On time
2012-11-08MD-8104.1626844-709No
2014-02-15B73703.4721761-50Charter
2014-04-19MD-814.3067890Yes
2015-05-05MD-8103.3922793-231No
2015-10-12MD-8103.4622733-193No
2016-02-29MD-8103.5132964-485No
(pireps marked green are flown by you)

Route map